Flight Track Log - Related Links

Times and Time Zones

All times are in EDT time to prevent confusion due to time zone crossing. See the SKW5196 flight status page for this flight to view local times or setup timezone preferences in your user account.

Time Position Orientation Groundspeed Altitude Reporting Facility
EDT Latitude Longitude Course Direction KTS MPH feet Rate Location/Type
Thu 06:36:19 AM 40.0022 -82.9128 270° West 139 160 1,200  Level Indianapolis Center
Thu 06:36:37 AM 40.0053 -82.9322 282° West 169 194 2,000 2,000 Climbing Indianapolis Center
Thu 06:37:34 AM 40.0081 -82.9908 274° West 184 212 3,700 2,085 Climbing Indianapolis Center
Thu 06:38:35 AM 40.0103 -83.0669 272° West 201 231 6,100 2,579 Climbing Indianapolis Center
Thu 06:39:00 AM 40.0000 -83.4220 270° West  Level FlightAware Approximate
Thu 06:39:35 AM 40.0125 -83.1522 272° West 229 264 8,900  Level Indianapolis Center
Thu 06:40:00 AM 40.0000 -83.5573 270° West  Level FlightAware Approximate
Thu 06:40:36 AM 40.0164 -83.2419 273° West 247 284 10,800  Level Indianapolis Center
Thu 06:41:00 AM 40.0000 -83.6925 270° West  Level FlightAware Approximate
Thu 06:41:37 AM 40.0164 -83.3453 270° West 284 327 12,700  Level Indianapolis Center
Thu 06:42:38 AM 39.9678 -83.4392 236° Southwest 310 357 14,300 1,785 Climbing Indianapolis Center
Thu 06:43:38 AM 39.9169 -83.5350 235° Southwest 323 372 16,300 1,835 Climbing Indianapolis Center
Thu 06:44:39 AM 39.8656 -83.6319 235° Southwest 329 379 18,000 1,770 Climbing Indianapolis Center
Thu 06:45:40 AM 39.8136 -83.7303 236° Southwest 331 381 19,900 1,721 Climbing Indianapolis Center
Thu 06:46:41 AM 39.7514 -83.8467 235° Southwest 335 386 21,500 1,736 Climbing Indianapolis Center
Thu 06:47:41 AM 39.6961 -83.9497 235° Southwest 342 394 23,400 1,686 Climbing Indianapolis Center
Thu 06:48:42 AM 39.6417 -84.0511 235° Southwest 340 391 24,900 1,230 Climbing Indianapolis Center
Thu 06:49:43 AM 39.5869 -84.1533 235° Southwest 343 395 25,900 1,033 Climbing Indianapolis Center
Thu 06:50:44 AM 39.5306 -84.2581 235° Southwest 350 403 27,000 942 Climbing Indianapolis Center
Thu 06:51:44 AM 39.4731 -84.3647 235° Southwest 357 411 27,800 843 Climbing Indianapolis Center
Thu 06:52:45 AM 39.4133 -84.4733 235° Southwest 367 422 28,700 885 Climbing Indianapolis Center
Thu 06:53:46 AM 39.3556 -84.5825 236° Southwest 366 421 29,600 738 Climbing Indianapolis Center
Thu 06:54:47 AM 39.2939 -84.6917 234° Southwest 372 428 30,200 590 Climbing Indianapolis Center
Thu 06:55:48 AM 39.2331 -84.8025 235° Southwest 376 433 30,800 492 Climbing Indianapolis Center
Thu 06:56:49 AM 39.1767 -84.9036 234° Southwest 382 440 31,200 397 Climbing Indianapolis Center
Thu 06:57:49 AM 39.1133 -85.0169 234° Southwest 387 445 31,600 496 Climbing Indianapolis Center
Thu 06:58:50 AM 39.0489 -85.1331 234° Southwest 393 452 32,200 836 Climbing Indianapolis Center
Thu 06:59:51 AM 38.9856 -85.2469 234° Southwest 389 448 33,300 1,082 Climbing Indianapolis Center
Thu 07:00:52 AM 38.9242 -85.3572 234° Southwest 378 435 34,400 1,082 Climbing Indianapolis Center
Thu 07:01:53 AM 38.8644 -85.4617 234° Southwest 363 418 35,500 1,230 Climbing Indianapolis Center
Thu 07:02:54 AM 38.7978 -85.5811 234° Southwest 349 402 36,900 1,033 Climbing Indianapolis Center
Thu 07:03:55 AM 38.7433 -85.6797 235° Southwest 338 389 37,600 492 Climbing Indianapolis Center
Thu 07:04:56 AM 38.6881 -85.7742 233° Southwest 331 381 37,900 197 Climbing Indianapolis Center
Thu 07:05:57 AM 38.6339 -85.8719 235° Southwest 334 384 38,000 49 Climbing Indianapolis Center
Thu 07:06:58 AM 38.5811 -85.9622 233° Southwest 343 395 38,000  Level Indianapolis Center
Thu 07:07:59 AM 38.5247 -86.0633 235° Southwest 348 400 38,000  Level Indianapolis Center
Thu 07:09:00 AM 38.4644 -86.1661 233° Southwest 357 411 38,000  Level Indianapolis Center
Thu 07:10:01 AM 38.4042 -86.2714 234° Southwest 364 419 38,000  Level Indianapolis Center
Thu 07:11:02 AM 38.3428 -86.3781 234° Southwest 369 425 38,000  Level Indianapolis Center
Thu 07:12:03 AM 38.2800 -86.4858 233° Southwest 372 428 38,000  Level Indianapolis Center
Thu 07:13:04 AM 38.2175 -86.5931 233° Southwest 374 430 38,000  Level Indianapolis Center
Thu 07:14:05 AM 38.1556 -86.7008 234° Southwest 373 429 38,000  Level Indianapolis Center
Thu 07:15:07 AM 38.0933 -86.8069 233° Southwest 370 426 38,000  Level Indianapolis Center
Thu 07:16:08 AM 38.0311 -86.9131 233° Southwest 368 423 38,000  Level Indianapolis Center
Thu 07:17:09 AM 37.9694 -87.0178 233° Southwest 367 422 38,000  Level Indianapolis Center
Thu 07:18:10 AM 37.9075 -87.1214 233° Southwest 365 420 38,000  Level Indianapolis Center
Thu 07:19:12 AM 37.8467 -87.2236 233° Southwest 361 415 38,000  Level Indianapolis Center
Thu 07:20:13 AM 37.7775 -87.3422 234° Southwest 358 412 38,000  Level Indianapolis Center
Thu 07:21:14 AM 37.7169 -87.4408 232° Southwest 354 407 38,000  Level Indianapolis Center
Thu 07:22:16 AM 37.6569 -87.5425 233° Southwest 356 410 38,000  Level Indianapolis Center
Thu 07:23:17 AM 37.5975 -87.6417 233° Southwest 353 406 38,000  Level Indianapolis Center
Thu 07:23:33 AM 37.5778 -87.6750 233° Southwest 363 418 38,000  Level Memphis Center
Thu 07:24:33 AM 37.5217 -87.7761 235° Southwest 363 418 38,000  Level Memphis Center
Thu 07:25:33 AM 37.4656 -87.8800 236° Southwest 363 418 38,000  Level Memphis Center
Thu 07:26:33 AM 37.4047 -87.9758 231° Southwest 363 418 38,000  Level Memphis Center
Thu 07:27:33 AM 37.3422 -88.0769 232° Southwest 363 418 38,000  Level Memphis Center
Thu 07:28:33 AM 37.2814 -88.1725 231° Southwest 363 418 38,000  Level Memphis Center
Thu 07:29:33 AM 37.2228 -88.2706 233° Southwest 363 418 38,000  Level Memphis Center
Thu 07:30:33 AM 37.1617 -88.3658 231° Southwest 358 412 38,000  Level Memphis Center
Thu 07:31:33 AM 37.1028 -88.4661 234° Southwest 358 412 38,000  Level Memphis Center
Thu 07:32:33 AM 37.0397 -88.5636 231° Southwest 358 412 38,000  Level Memphis Center
Thu 07:33:33 AM 36.9786 -88.6611 232° Southwest 363 418 38,000  Level Memphis Center
Thu 07:34:33 AM 36.9175 -88.7586 232° Southwest 363 418 38,000  Level Memphis Center
Thu 07:35:33 AM 36.8561 -88.8556 232° Southwest 363 418 38,000  Level Memphis Center
Thu 07:36:33 AM 36.7947 -88.9578 233° Southwest 368 423 38,000  Level Memphis Center
Thu 07:37:33 AM 36.7353 -89.0519 232° Southwest 368 423 38,000  Level Memphis Center
Thu 07:38:33 AM 36.6717 -89.1514 231° Southwest 373 429 38,000  Level Memphis Center
Thu 07:39:33 AM 36.6122 -89.2506 233° Southwest 373 429 38,000  Level Memphis Center
Thu 07:40:33 AM 36.5525 -89.3494 233° Southwest 373 429 38,000  Level Memphis Center
Thu 07:41:33 AM 36.4847 -89.4483 230° Southwest 373 429 38,000  Level Memphis Center
Thu 07:42:33 AM 36.4228 -89.5522 233° Southwest 378 435 38,000  Level Memphis Center
Thu 07:43:33 AM 36.3567 -89.6483 230° Southwest 373 429 38,000  Level Memphis Center
Thu 07:44:33 AM 36.2947 -89.7467 232° Southwest 367 422 38,000  Level Memphis Center
Thu 07:45:33 AM 36.2306 -89.8425 230° Southwest 372 428 38,000  Level Memphis Center
Thu 07:46:33 AM 36.1683 -89.9378 231° Southwest 372 428 38,000  Level Memphis Center
Thu 07:47:33 AM 36.1061 -90.0383 233° Southwest 372 428 38,000  Level Memphis Center
Thu 07:48:33 AM 36.0394 -90.1311 228° Southwest 372 428 38,000  Level Memphis Center
Thu 07:49:33 AM 35.9772 -90.2289 232° Southwest 372 428 38,000  Level Memphis Center
Thu 07:50:33 AM 35.9189 -90.3236 233° Southwest 372 428 38,000  Level Memphis Center
Thu 07:51:33 AM 35.8522 -90.4186 229° Southwest 372 428 38,000  Level Memphis Center
Thu 07:52:33 AM 35.7914 -90.5156 232° Southwest 372 428 38,000  Level Memphis Center
Thu 07:53:33 AM 35.7289 -90.6103 231° Southwest 372 428 38,000  Level Memphis Center
Thu 07:54:33 AM 35.6786 -90.6969 234° Southwest 372 428 38,000  Level Memphis Center
Thu 07:55:33 AM 35.6158 -90.7936 231° Southwest 364 419 38,000  Level Memphis Center
Thu 07:56:33 AM 35.5528 -90.8853 230° Southwest 358 412 38,000  Level Memphis Center
Thu 07:57:33 AM 35.4919 -90.9817 232° Southwest 363 418 38,000  Level Memphis Center
Thu 07:58:33 AM 35.4289 -91.0756 231° Southwest 363 418 38,000  Level Memphis Center
Thu 07:59:33 AM 35.3614 -91.1744 230° Southwest 363 418 38,000  Level Memphis Center
Thu 08:00:33 AM 35.2983 -91.2678 230° Southwest 363 418 38,000  Level Memphis Center
Thu 08:01:33 AM 35.2350 -91.3611 230° Southwest 363 418 38,000  Level Memphis Center
Thu 08:02:33 AM 35.1717 -91.4544 230° Southwest 363 418 38,000  Level Memphis Center
Thu 08:03:33 AM 35.1081 -91.5475 230° Southwest 363 418 38,000  Level Memphis Center
Thu 08:04:33 AM 35.0425 -91.6406 229° Southwest 363 418 38,000  Level Memphis Center
Thu 08:05:33 AM 34.9789 -91.7383 232° Southwest 368 423 38,000  Level Memphis Center
Thu 08:06:33 AM 34.9153 -91.8336 231° Southwest 368 423 38,000  Level Memphis Center
Thu 08:07:33 AM 34.8514 -91.9261 230° Southwest 373 429 38,000  Level Memphis Center
Thu 08:08:33 AM 34.7856 -92.0208 230° Southwest 373 429 38,000  Level Memphis Center
Thu 08:09:33 AM 34.7175 -92.1156 229° Southwest 373 429 38,000  Level Memphis Center
Thu 08:10:33 AM 34.6289 -92.1844 213° Southwest 373 429 38,000  Level Memphis Center
Thu 08:11:33 AM 34.5117 -92.2097 190° South 388 447 38,000  Level Memphis Center
Thu 08:12:33 AM 34.3925 -92.2322 189° South 416 479 38,000  Level Memphis Center
Thu 08:13:33 AM 34.2711 -92.2572 190° South 428 493 38,000  Level Memphis Center
Thu 08:14:33 AM 34.1539 -92.2772 188° South 435 501 38,000  Level Memphis Center
Thu 08:16:18 AM 33.9489 -92.3186 190° South 409 471 38,000  Level Fort Worth Center
Thu 08:17:18 AM 33.8267 -92.3406 188° South 451 519 38,000  Level Fort Worth Center
Thu 08:18:18 AM 33.7044 -92.3628 189° South 446 513 38,000  Level Fort Worth Center
Thu 08:19:18 AM 33.5822 -92.3847 189° South 446 513 38,000  Level Fort Worth Center
Thu 08:20:19 AM 33.4622 -92.4064 189° South 446 513 38,000  Level Fort Worth Center
Thu 08:21:18 AM 33.3419 -92.4283 189° South 441 507 38,000  Level Fort Worth Center
Thu 08:22:18 AM 33.2175 -92.4500 188° South 446 513 38,000  Level Fort Worth Center
Thu 08:23:18 AM 33.0953 -92.4742 189° South 446 513 38,000  Level Fort Worth Center
Thu 08:24:18 AM 32.9753 -92.4958 189° South 446 513 38,000  Level Fort Worth Center
Thu 08:25:18 AM 32.8508 -92.5175 188° South 446 513 38,000  Level Fort Worth Center
Thu 08:26:18 AM 32.7286 -92.5389 188° South 446 513 38,000  Level Fort Worth Center
Thu 08:28:24 AM 32.4881 -92.5864 189° South 443 510 38,000  Level Houston Center
Thu 08:29:26 AM 32.3658 -92.6050 187° South 448 516 38,000  Level Houston Center
Thu 08:30:27 AM 32.2425 -92.6261 188° South 447 514 38,000  Level Houston Center
Thu 08:31:29 AM 32.0972 -92.6539 189° South 443 510 38,000 -48 Level Houston Center
Thu 08:32:31 AM 31.9786 -92.6831 192° South 437 503 37,900 -537 Descending Houston Center
Thu 08:33:32 AM 31.8822 -92.7586 214° Southwest 418 481 36,900 -927 Descending Houston Center
Thu 08:34:34 AM 31.7947 -92.8486 221° Southwest 417 480 36,000 -435 Descending Houston Center
Thu 08:35:36 AM 31.7050 -92.9347 219° Southwest 418 481 36,000  Level Houston Center
Thu 08:36:37 AM 31.6197 -93.0208 221° Southwest 406 467 36,000  Level Houston Center
Thu 08:37:39 AM 31.5325 -93.1036 219° Southwest 404 465 36,000  Level Houston Center
Thu 08:38:41 AM 31.4272 -93.2042 219° Southwest 408 470 36,000  Level Houston Center
Thu 08:39:43 AM 31.3422 -93.2858 219° Southwest 407 468 36,000  Level Houston Center
Thu 08:40:44 AM 31.2522 -93.3714 219° Southwest 408 470 36,000  Level Houston Center
Thu 08:41:46 AM 31.1628 -93.4553 219° Southwest 413 475 36,000  Level Houston Center
Thu 08:42:48 AM 31.0750 -93.5392 219° Southwest 411 473 36,000 -1,161 Level Houston Center
Thu 08:43:50 AM 30.9850 -93.6250 219° Southwest 419 482 33,600 -2,683 Descending Houston Center
Thu 08:44:51 AM 30.8731 -93.7306 219° Southwest 431 496 30,500 -2,780 Descending Houston Center
Thu 08:45:53 AM 30.7806 -93.8186 219° Southwest 434 499 27,900 -2,516 Descending Houston Center
Thu 08:46:55 AM 30.6875 -93.9056 219° Southwest 433 498 25,300 -2,468 Descending Houston Center
Thu 08:47:57 AM 30.5972 -93.9903 219° Southwest 424 488 22,800 -2,390 Descending Houston Center
Thu 08:48:58 AM 30.5086 -94.0744 219° Southwest 416 479 20,400 -2,439 Descending Houston Center
Thu 08:50:00 AM 30.4081 -94.1686 219° Southwest 396 456 17,800 -2,400 Descending Houston Center
Thu 08:50:28 AM 30.3733 -94.2008 219° Southwest 377 434 16,800 -2,323 Descending Houston Center
Thu 08:51:02 AM 30.3272 -94.2447 219° Southwest 381 438 15,400 -2,375 Descending Houston Center
Thu 08:52:04 AM 30.2636 -94.3306 229° Southwest 362 417 13,000 -1,645 Descending Houston Center
Thu 08:53:06 AM 30.2225 -94.4233 243° Southwest 331 381 12,000 -488 Descending Houston Center
Thu 08:54:07 AM 30.1769 -94.5169 241° Southwest 309 356 12,000 -508 Level Houston Center
Thu 08:55:04 AM 30.1378 -94.6044 243° Southwest 304 350 11,000 -1,258 Descending Houston Center
Thu 08:56:11 AM 30.1144 -94.6900 253° West 283 326 9,400 -1,500 Descending Houston Center
Thu 08:57:12 AM 30.0881 -94.7872 253° West 277 319 7,800 -1,561 Descending Houston Center
Thu 08:58:14 AM 30.0647 -94.8722 252° West 282 325 6,200 -1,333 Descending Houston Center
Thu 08:59:09 AM 30.0447 -94.9497 253° West 270 311 5,200 -1,056 Descending Houston Center
Thu 09:00:19 AM 30.0206 -95.0397 253° West 264 304 4,000 -984 Descending Houston Center
Thu 09:01:17 AM 29.9981 -95.1219 252° West 256 295 3,100 -931 Descending Houston Center

Login

Don't have an account? Register now (free) for customized features, flight alerts, and more!